Time;durP1;ratioP1;P1;durP2;ratioP2;P2;SDS_P1;SDS_P2;PMS_P1;PMS_P2;Temp;Humidity;BMP_temperature;BMP_pressure;BME280_temperature;BME280_humidity;BME280_pressure;Samples;Min_cycle;Max_cycle;Signal;HPM_P1;HPM_P2
2021/01/20 00:02:25;;;;;;;14.90;6.10;;;;;;;5.33;100.00;100356.50;5191531;28;20488;-66
2021/01/20 00:04:55;;;;;;;15.68;5.85;;;;;;;5.39;100.00;100369.22;5202465;28;20025;-66
2021/01/20 00:07:26;;;;;;;17.27;6.35;;;;;;;5.38;100.00;100356.91;5204969;28;20045;-66
2021/01/20 00:09:56;;;;;;;12.02;5.35;;;;;;;5.52;100.00;100358.22;5203933;28;20036;-66
2021/01/20 00:12:26;;;;;;;17.38;5.57;;;;;;;5.49;100.00;100339.09;5190950;28;20022;-65
2021/01/20 00:14:57;;;;;;;11.40;5.43;;;;;;;5.58;100.00;100343.53;5183331;28;20094;-66
2021/01/20 00:17:27;;;;;;;11.10;5.28;;;;;;;5.58;100.00;100344.38;5193353;28;20105;-66
2021/01/20 00:19:58;;;;;;;18.25;6.47;;;;;;;5.70;100.00;100339.69;5195608;28;20033;-66
2021/01/20 00:22:28;;;;;;;12.10;5.60;;;;;;;5.67;100.00;100345.28;5184025;28;20049;-66
2021/01/20 00:24:59;;;;;;;11.18;5.25;;;;;;;5.68;100.00;100350.50;5180543;28;20021;-66
2021/01/20 00:27:29;;;;;;;21.35;6.15;;;;;;;5.72;100.00;100351.00;5188180;28;20491;-66
2021/01/20 00:29:59;;;;;;;10.77;5.15;;;;;;;5.79;100.00;100351.28;5192987;28;20399;-66
2021/01/20 00:32:30;;;;;;;14.00;5.65;;;;;;;5.80;100.00;100344.97;5183714;28;20022;-66
2021/01/20 00:35:03;;;;;;;10.65;5.22;;;;;;;5.85;100.00;100334.72;5182854;28;20408;-65
2021/01/20 00:37:35;;;;;;;13.80;6.63;;;;;;;5.89;100.00;100336.94;5194295;28;20028;-66
2021/01/20 00:40:06;;;;;;;13.63;5.55;;;;;;;5.88;100.00;100323.78;5191715;28;20110;-65
2021/01/20 00:42:37;;;;;;;16.58;5.80;;;;;;;5.92;100.00;100330.50;5204151;28;20455;-66
2021/01/20 00:45:08;;;;;;;12.02;5.60;;;;;;;6.01;100.00;100328.75;5200533;28;20030;-66
2021/01/20 00:47:38;;;;;;;20.27;5.03;;;;;;;6.05;100.00;100325.66;5183788;28;20025;-66
2021/01/20 00:50:09;;;;;;;12.50;5.63;;;;;;;6.12;100.00;100318.72;5196456;28;20026;-66
2021/01/20 00:52:39;;;;;;;12.57;6.25;;;;;;;6.10;100.00;100312.72;5183551;28;20403;-66
2021/01/20 00:55:14;;;;;;;14.23;6.00;;;;;;;6.16;100.00;100317.44;5187010;28;20032;-66
2021/01/20 00:57:44;;;;;;;11.50;6.13;;;;;;;6.21;100.00;100317.84;5191586;28;20025;-66
2021/01/20 01:00:15;;;;;;;12.90;5.47;;;;;;;6.28;100.00;100302.09;5202591;28;20017;-66
2021/01/20 01:02:46;;;;;;;14.93;5.43;;;;;;;6.30;100.00;100307.28;5203076;28;20061;-66
2021/01/20 01:05:17;;;;;;;10.80;5.75;;;;;;;6.34;100.00;100309.47;5190391;28;20107;-66
2021/01/20 01:07:47;;;;;;;14.05;6.10;;;;;;;6.36;100.00;100307.50;5204135;28;20487;-66
2021/01/20 01:10:18;;;;;;;13.18;5.63;;;;;;;6.36;100.00;100304.81;5194212;28;20084;-66
2021/01/20 01:12:48;;;;;;;12.07;4.97;;;;;;;6.36;100.00;100309.31;5196048;28;20022;-66
2021/01/20 01:15:19;;;;;;;13.13;6.15;;;;;;;6.35;100.00;100305.81;5191936;28;20120;-66
2021/01/20 01:17:49;;;;;;;10.50;5.22;;;;;;;6.37;100.00;100306.50;5197390;28;20021;-65
2021/01/20 01:20:20;;;;;;;11.55;5.28;;;;;;;6.37;100.00;100293.16;5191814;28;20398;-66
2021/01/20 01:22:50;;;;;;;13.55;5.50;;;;;;;6.41;100.00;100307.88;5187508;28;20026;-66
2021/01/20 01:25:21;;;;;;;13.35;5.13;;;;;;;6.33;100.00;100294.50;5168574;28;20029;-66
2021/01/20 01:27:51;;;;;;;11.68;5.05;;;;;;;6.27;100.00;100284.41;5189540;28;20032;-66
2021/01/20 01:30:22;;;;;;;12.15;5.63;;;;;;;6.31;100.00;100283.13;5202740;28;20056;-66
2021/01/20 01:32:53;;;;;;;14.27;5.32;;;;;;;6.25;100.00;100298.91;5202810;28;20082;-66
2021/01/20 01:35:23;;;;;;;12.98;6.15;;;;;;;6.30;100.00;100292.13;5189511;28;20479;-66
2021/01/20 01:37:53;;;;;;;13.60;5.10;;;;;;;6.40;100.00;100292.03;5188918;28;20041;-66
2021/01/20 01:40:24;;;;;;;9.68;4.55;;;;;;;6.39;100.00;100290.38;5180866;28;20048;-66
2021/01/20 01:42:56;;;;;;;14.40;4.80;;;;;;;6.35;100.00;100289.84;5202256;28;20029;-66
2021/01/20 01:45:27;;;;;;;8.15;4.30;;;;;;;6.48;100.00;100290.31;5202382;28;20049;-66
2021/01/20 01:47:57;;;;;;;8.30;3.83;;;;;;;6.45;100.00;100287.94;5191304;28;20068;-66
2021/01/20 01:50:28;;;;;;;8.98;4.93;;;;;;;6.44;100.00;100277.44;5201190;28;20036;-66
2021/01/20 01:52:58;;;;;;;11.52;4.25;;;;;;;6.44;100.00;100291.59;5189256;28;20026;-66
2021/01/20 01:55:30;;;;;;;13.77;4.40;;;;;;;6.40;100.00;100271.56;5176066;28;20048;-66
2021/01/20 01:58:01;;;;;;;9.65;4.78;;;;;;;6.44;100.00;100278.25;5201192;28;20040;-65
2021/01/20 02:00:32;;;;;;;11.25;5.60;;;;;;;6.41;100.00;100273.22;5182060;28;20034;-66
2021/01/20 02:03:03;;;;;;;11.80;4.15;;;;;;;6.43;100.00;100276.59;5181858;28;20121;-66
2021/01/20 02:05:34;;;;;;;7.55;4.20;;;;;;;6.41;100.00;100272.41;5192467;28;20053;-65
2021/01/20 02:08:06;;;;;;;11.30;4.28;;;;;;;6.51;100.00;100257.16;5198857;28;20021;-65
2021/01/20 02:10:38;;;;;;;6.72;4.03;;;;;;;6.56;100.00;100270.84;5181490;28;20499;-66
2021/01/20 02:13:28;;;;;;;10.90;5.30;;;;;;;6.60;100.00;100261.56;5200046;28;20025;-66
2021/01/20 02:16:15;;;;;;;10.52;4.40;;;;;;;6.54;100.00;100261.34;5202100;28;20040;-65
2021/01/20 02:18:50;;;;;;;11.55;4.78;;;;;;;6.53;100.00;100257.03;5184720;28;20032;-65
2021/01/20 02:21:33;;;;;;;7.57;4.20;;;;;;;6.49;100.00;100246.66;5181263;28;20033;-66
2021/01/20 02:24:08;;;;;;;8.32;4.35;;;;;;;6.59;100.00;100249.25;5187175;28;20081;-66
2021/01/20 02:26:55;;;;;;;;;;;;;;;6.62;100.00;100240.91;5192662;28;20100;-65
2021/01/20 02:29:42;;;;;;;10.93;4.28;;;;;;;6.59;100.00;100235.09;5188894;28;20000;-66
2021/01/20 02:32:15;;;;;;;7.75;4.03;;;;;;;6.56;100.00;100230.88;5185360;28;20026;-66
2021/01/20 02:34:49;;;;;;;8.23;4.00;;;;;;;6.60;100.00;100218.09;5191982;28;20029;-65
2021/01/20 02:37:22;;;;;;;9.32;5.03;;;;;;;6.57;100.00;100208.56;5195978;28;20435;-66
2021/01/20 02:39:53;;;;;;;10.55;5.00;;;;;;;6.52;100.00;100202.88;5173623;28;20018;-66
2021/01/20 02:42:24;;;;;;;10.90;4.00;;;;;;;6.49;100.00;100206.69;5181237;28;20017;-66
2021/01/20 02:44:54;;;;;;;9.90;4.32;;;;;;;6.54;100.00;100197.41;5194704;28;20029;-65
2021/01/20 02:47:26;;;;;;;7.95;4.32;;;;;;;6.50;100.00;100204.88;5194981;28;20495;-65
2021/01/20 02:50:02;;;;;;;12.93;5.07;;;;;;;6.48;100.00;100193.53;5197883;28;20049;-66
2021/01/20 02:52:56;;;;;;;11.65;4.22;;;;;;;6.46;100.00;100182.19;5201728;28;20033;-66
2021/01/20 02:55:29;;;;;;;9.73;4.15;;;;;;;6.46;100.00;100175.00;5195035;28;20448;-66
2021/01/20 02:58:05;;;;;;;7.53;3.60;;;;;;;6.42;100.00;100170.97;5195950;28;20453;-66
2021/01/20 03:00:38;;;;;;;10.63;4.47;;;;;;;6.41;100.00;100166.66;5201558;28;20022;-66
2021/01/20 03:03:10;;;;;;;7.65;3.92;;;;;;;6.51;100.00;100174.56;5188058;28;20075;-66
2021/01/20 03:05:43;;;;;;;9.10;3.95;;;;;;;6.57;100.00;100152.59;5201603;28;20049;-66
2021/01/20 03:08:15;;;;;;;8.82;4.45;;;;;;;6.55;100.00;100151.94;5201921;28;20056;-65
2021/01/20 03:10:45;;;;;;;9.75;4.10;;;;;;;6.62;100.00;100152.13;5188545;28;20030;-66
2021/01/20 03:13:17;;;;;;;7.50;3.25;;;;;;;6.67;100.00;100155.16;5200392;28;20071;-66
2021/01/20 03:15:50;;;;;;;12.05;3.75;;;;;;;6.68;100.00;100156.84;5188187;28;20026;-64
2021/01/20 03:18:21;;;;;;;10.23;3.70;;;;;;;6.86;100.00;100157.59;5196426;28;20029;-66
2021/01/20 03:20:51;;;;;;;10.52;4.03;;;;;;;6.84;100.00;100167.59;5198682;28;20044;-66
2021/01/20 03:23:22;;;;;;;10.75;3.90;;;;;;;6.86;100.00;100159.44;5177962;28;20088;-66
2021/01/20 03:25:52;;;;;;;7.68;3.83;;;;;;;6.79;100.00;100153.06;5180176;28;20022;-65
2021/01/20 03:28:23;;;;;;;8.80;3.55;;;;;;;6.83;100.00;100147.28;5192903;28;20021;-65
2021/01/20 03:30:54;;;;;;;7.18;3.97;;;;;;;6.93;100.00;100142.66;5188295;28;20029;-66
2021/01/20 03:33:24;;;;;;;7.97;4.00;;;;;;;6.95;100.00;100139.81;5188400;28;20025;-65
2021/01/20 03:35:55;;;;;;;10.10;3.95;;;;;;;6.92;100.00;100132.94;5201126;28;20487;-66
2021/01/20 03:38:25;;;;;;;8.55;3.45;;;;;;;6.92;100.00;100129.47;5183302;28;20030;-66
2021/01/20 03:40:56;;;;;;;8.05;3.65;;;;;;;6.88;100.00;100125.47;5189813;28;20160;-65
2021/01/20 03:43:26;;;;;;;5.65;3.85;;;;;;;6.81;100.00;100121.75;5202140;28;20068;-66
2021/01/20 03:45:57;;;;;;;11.55;4.00;;;;;;;6.86;100.00;100127.44;5194574;28;20028;-65
2021/01/20 03:48:27;;;;;;;5.32;3.40;;;;;;;6.93;100.00;100126.66;5191395;28;20506;-65
2021/01/20 03:50:58;;;;;;;9.20;3.50;;;;;;;6.82;100.00;100128.75;5194972;28;20407;-66
2021/01/20 03:53:28;;;;;;;9.15;3.83;;;;;;;6.82;100.00;100124.25;5183428;28;20026;-66
2021/01/20 03:55:59;;;;;;;9.02;3.45;;;;;;;6.75;100.00;100124.06;5185004;28;20026;-65
2021/01/20 03:58:29;;;;;;;6.88;3.30;;;;;;;6.79;100.00;100121.09;5184291;28;20117;-66
2021/01/20 04:01:00;;;;;;;8.93;4.38;;;;;;;6.74;100.00;100117.06;5184486;28;20029;-66
2021/01/20 04:03:30;;;;;;;10.93;3.50;;;;;;;6.77;100.00;100118.56;5201925;28;20057;-66
2021/01/20 04:06:00;;;;;;;6.45;3.20;;;;;;;6.85;100.00;100125.78;5204571;28;20021;-66
2021/01/20 04:08:31;;;;;;;7.00;3.25;;;;;;;6.77;100.00;100123.88;5192476;28;20021;-65
2021/01/20 04:11:02;;;;;;;8.38;3.35;;;;;;;6.81;100.00;100119.91;5191314;28;20022;-66
2021/01/20 04:13:35;;;;;;;6.68;3.28;;;;;;;6.82;100.00;100108.25;5194250;28;20400;-65
2021/01/20 04:16:05;;;;;;;6.13;3.20;;;;;;;6.85;100.00;100105.28;5201125;28;20057;-66
2021/01/20 04:18:36;;;;;;;7.32;3.17;;;;;;;6.90;100.00;100102.97;5187820;28;20191;-66
2021/01/20 04:21:06;;;;;;;6.68;3.42;;;;;;;6.87;100.00;100107.78;5202441;28;20041;-66
2021/01/20 04:23:37;;;;;;;7.60;2.72;;;;;;;6.86;100.00;100106.94;5196367;28;20080;-66
2021/01/20 04:26:09;;;;;;;8.50;2.70;;;;;;;6.89;100.00;100105.78;5175839;28;20025;-66
2021/01/20 04:28:39;;;;;;;4.60;2.42;;;;;;;6.88;100.00;100104.97;5204416;28;20100;-66
2021/01/20 04:31:10;;;;;;;4.82;2.40;;;;;;;6.92;100.00;100103.63;5204696;28;20116;-65
2021/01/20 04:33:40;;;;;;;5.40;2.60;;;;;;;6.95;100.00;100089.97;5189692;28;20033;-66
2021/01/20 04:36:10;;;;;;;4.32;2.45;;;;;;;7.00;100.00;100101.00;5204631;28;20476;-65
2021/01/20 04:38:41;;;;;;;6.35;2.55;;;;;;;7.01;100.00;100089.31;5181244;28;20395;-66
2021/01/20 04:41:11;;;;;;;5.20;2.13;;;;;;;7.09;100.00;100095.69;5194773;28;20373;-66
2021/01/20 04:43:43;;;;;;;4.35;1.92;;;;;;;7.14;100.00;100090.72;5196017;28;20026;-65
2021/01/20 04:46:13;;;;;;;6.18;2.35;;;;;;;7.24;100.00;100083.41;5195096;28;20068;-66
2021/01/20 04:48:47;;;;;;;6.13;2.15;;;;;;;7.25;100.00;100082.41;5190585;28;20029;-66
2021/01/20 04:51:19;;;;;;;5.88;2.50;;;;;;;7.28;100.00;100082.09;5191609;28;20030;-65
2021/01/20 04:53:53;;;;;;;2.72;1.98;;;;;;;7.28;100.00;100084.75;5195753;28;20498;-66
2021/01/20 04:56:24;;;;;;;6.93;2.10;;;;;;;7.35;100.00;100077.75;5184730;28;20026;-66
2021/01/20 04:58:55;;;;;;;7.43;2.30;;;;;;;7.33;100.00;100071.75;5195119;28;20025;-66
2021/01/20 05:01:26;;;;;;;4.13;1.83;;;;;;;7.38;100.00;100065.91;5196224;28;20022;-65
2021/01/20 05:03:59;;;;;;;4.30;1.95;;;;;;;7.40;100.00;100066.59;5182618;28;20084;-66
2021/01/20 05:06:31;;;;;;;4.90;2.33;;;;;;;7.46;100.00;100058.75;5183560;28;20109;-66
2021/01/20 05:09:02;;;;;;;3.00;1.83;;;;;;;7.49;100.00;100055.75;5194612;28;20109;-66
2021/01/20 05:11:40;;;;;;;3.03;1.83;;;;;;;7.48;100.00;100055.91;5185269;28;20025;-65
2021/01/20 05:14:18;;;;;;;4.10;2.17;;;;;;;7.43;100.00;100058.22;5181454;28;20029;-66
2021/01/20 05:16:50;;;;;;;4.15;1.88;;;;;;;7.44;100.00;100055.41;5202006;28;20446;-66
2021/01/20 05:19:36;;;;;;;4.97;2.00;;;;;;;7.50;100.00;100061.94;5185535;28;20060;-66
2021/01/20 05:22:11;;;;;;;5.35;1.98;;;;;;;7.44;100.00;100052.75;5202481;28;20052;-65
2021/01/20 05:24:41;;;;;;;7.07;2.55;;;;;;;7.46;100.00;100053.41;5185553;28;20160;-66
2021/01/20 05:27:12;;;;;;;5.13;1.92;;;;;;;7.50;100.00;100036.06;5198124;28;20108;-66
2021/01/20 05:29:57;;;;;;;4.25;2.15;;;;;;;7.49;100.00;100037.06;5203318;28;20021;-66
2021/01/20 05:32:28;;;;;;;3.75;2.00;;;;;;;7.41;100.00;100053.06;5203168;28;20024;-66
2021/01/20 05:35:02;;;;;;;6.35;2.13;;;;;;;7.36;100.00;100044.72;5201941;28;20474;-66
2021/01/20 05:37:46;;;;;;;6.13;2.40;;;;;;;7.36;100.00;100047.41;5198474;28;20026;-66
2021/01/20 05:40:19;;;;;;;7.10;2.08;;;;;;;7.40;100.00;100038.06;5191376;28;20029;-66
2021/01/20 05:42:52;;;;;;;6.03;2.03;;;;;;;7.31;100.00;100044.38;5182274;28;20018;-66
2021/01/20 05:45:24;;;;;;;5.63;2.30;;;;;;;7.26;100.00;100038.72;5181907;28;20075;-66
2021/01/20 05:48:02;;;;;;;6.20;2.65;;;;;;;7.19;100.00;100038.53;5184010;28;20017;-66
2021/01/20 05:50:34;;;;;;;4.07;2.03;;;;;;;7.17;100.00;100034.34;5196225;28;20580;-66
2021/01/20 05:53:07;;;;;;;4.03;1.83;;;;;;;7.09;100.00;100032.53;5181553;28;20022;-66
2021/01/20 05:55:39;;;;;;;3.78;2.15;;;;;;;7.06;100.00;100032.00;5190861;28;20026;-66
2021/01/20 05:58:09;;;;;;;6.40;2.35;;;;;;;7.00;100.00;100028.16;5189032;28;20090;-66
2021/01/20 06:00:40;;;;;;;4.25;2.13;;;;;;;6.90;100.00;100028.31;5203058;28;20033;-66
2021/01/20 06:03:11;;;;;;;4.32;1.98;;;;;;;6.84;100.00;100028.97;5197720;28;20025;-66
2021/01/20 06:05:42;;;;;;;5.15;2.22;;;;;;;6.78;100.00;100026.94;5193842;28;20032;-66
2021/01/20 06:08:12;;;;;;;3.88;2.08;;;;;;;6.71;100.00;100025.91;5188470;28;20475;-65
2021/01/20 06:10:43;;;;;;;2.80;1.80;;;;;;;6.66;100.00;100018.38;5201648;28;20052;-66
2021/01/20 06:13:13;;;;;;;3.90;2.22;;;;;;;6.76;100.00;100028.91;5201596;28;20017;-66
2021/01/20 06:15:44;;;;;;;4.35;2.40;;;;;;;6.63;100.00;100024.06;5202495;28;20094;-66
2021/01/20 06:18:15;;;;;;;4.28;2.10;;;;;;;6.54;100.00;100021.53;5191109;28;20508;-66
2021/01/20 06:20:47;;;;;;;7.35;2.78;;;;;;;6.53;100.00;100022.53;5202034;28;20034;-66
2021/01/20 06:23:25;;;;;;;3.42;1.98;;;;;;;6.56;100.00;100015.00;5190408;28;20034;-66
2021/01/20 06:26:03;;;;;;;11.10;2.63;;;;;;;6.47;100.00;100021.31;5179272;28;20075;-66
2021/01/20 06:28:37;;;;;;;8.00;2.60;;;;;;;6.45;100.00;100012.66;5194811;28;20112;-65
2021/01/20 06:31:08;;;;;;;3.85;2.20;;;;;;;6.49;100.00;100014.84;5189202;28;20033;-66
2021/01/20 06:33:38;;;;;;;6.53;2.70;;;;;;;6.46;100.00;100004.47;5201176;28;20040;-66
2021/01/20 06:36:09;;;;;;;5.20;3.08;;;;;;;6.48;100.00;100007.00;5194227;28;20030;-66
2021/01/20 06:38:39;;;;;;;7.47;2.42;;;;;;;6.53;100.00;100015.34;5174070;28;20046;-66
2021/01/20 06:41:35;;;;;;;7.13;3.53;;;;;;;6.56;100.00;100024.84;5202629;28;20037;-66
2021/01/20 06:44:09;;;;;;;8.70;2.70;;;;;;;6.50;100.00;99997.00;5188612;28;20021;-65
2021/01/20 06:47:00;;;;;;;6.68;2.10;;;;;;;6.51;100.00;100006.66;5200509;28;20024;-66
2021/01/20 06:49:33;;;;;;;3.65;2.00;;;;;;;6.54;100.00;99997.53;5193149;28;20029;-66
2021/01/20 06:52:05;;;;;;;4.90;2.05;;;;;;;6.53;100.00;100014.53;5202050;28;20064;-66
2021/01/20 06:54:38;;;;;;;4.47;1.90;;;;;;;6.53;100.00;100004.69;5201003;28;20038;-66
2021/01/20 06:57:29;;;;;;;5.50;2.22;;;;;;;6.49;100.00;100014.84;5194853;28;20026;-66
2021/01/20 07:00:07;;;;;;;7.35;2.22;;;;;;;6.51;100.00;100009.34;5198920;28;20112;-66
2021/01/20 07:02:57;;;;;;;4.30;2.28;;;;;;;6.52;100.00;100012.84;5189222;28;20026;-66
2021/01/20 07:05:39;;;;;;;6.28;2.20;;;;;;;6.55;100.00;100009.84;5190395;28;20111;-66
2021/01/20 07:08:10;;;;;;;3.78;1.88;;;;;;;6.48;100.00;100009.69;5188591;28;20053;-66
2021/01/20 07:11:00;;;;;;;4.15;2.30;;;;;;;6.44;100.00;100006.47;5201052;28;20029;-66
2021/01/20 07:13:38;;;;;;;4.50;2.40;;;;;;;6.46;100.00;100015.13;5173085;28;20030;-65
2021/01/20 07:16:10;;;;;;;5.55;2.35;;;;;;;6.47;100.00;100003.47;5185054;28;20093;-66
2021/01/20 07:18:43;;;;;;;5.28;1.98;;;;;;;6.44;100.00;100011.81;5185686;28;20021;-66
2021/01/20 07:21:14;;;;;;;4.53;2.20;;;;;;;6.42;100.00;100004.97;5202841;28;20032;-67
2021/01/20 07:23:45;;;;;;;6.53;2.13;;;;;;;6.37;100.00;100005.44;5190089;28;20104;-67
2021/01/20 07:26:16;;;;;;;4.43;2.20;;;;;;;6.36;100.00;100000.28;5172302;28;20064;-67
2021/01/20 07:28:47;;;;;;;3.80;2.17;;;;;;;6.39;100.00;99991.97;5185715;28;20030;-66
2021/01/20 07:31:17;;;;;;;6.68;2.20;;;;;;;6.35;100.00;99986.13;5193633;28;20063;-65
2021/01/20 07:33:50;;;;;;;5.30;1.90;;;;;;;6.32;100.00;99986.44;5201896;28;20403;-66
2021/01/20 07:36:23;;;;;;;6.28;1.88;;;;;;;6.28;100.00;99986.94;5195290;28;20112;-66
2021/01/20 07:38:53;;;;;;;7.32;2.20;;;;;;;6.34;100.00;99979.13;5182988;28;20036;-66
2021/01/20 07:41:25;;;;;;;3.03;1.98;;;;;;;6.36;100.00;99981.63;5196431;28;20022;-68
2021/01/20 07:44:08;;;;;;;3.83;1.95;;;;;;;6.36;100.00;99981.63;5204389;28;20076;-68
2021/01/20 07:46:38;;;;;;;3.15;1.77;;;;;;;6.42;100.00;99978.31;5204521;28;20041;-66
2021/01/20 07:49:12;;;;;;;5.97;2.03;;;;;;;6.39;100.00;99976.00;5194135;28;20123;-66
2021/01/20 07:51:42;;;;;;;4.35;1.90;;;;;;;6.42;100.00;99967.66;5188285;28;20369;-66
2021/01/20 07:54:13;;;;;;;7.95;2.25;;;;;;;6.60;100.00;99973.72;5195231;28;20028;-67
2021/01/20 07:56:48;;;;;;;5.93;2.50;;;;;;;6.62;100.00;99968.22;5200410;28;20025;-66
2021/01/20 07:59:19;;;;;;;4.15;2.20;;;;;;;6.58;100.00;99989.06;5185005;28;20026;-66
2021/01/20 08:01:50;;;;;;;3.47;1.85;;;;;;;6.66;100.00;99985.56;5204266;28;20033;-66
2021/01/20 08:04:23;;;;;;;5.15;1.77;;;;;;;6.72;100.00;99979.59;5204533;28;20099;-67
2021/01/20 08:06:53;;;;;;;3.80;1.90;;;;;;;6.70;100.00;99989.59;5178819;28;20121;-67
2021/01/20 08:09:37;;;;;;;3.80;1.90;;;;;;;6.74;100.00;99996.28;5205218;28;20097;-66
2021/01/20 08:12:10;;;;;;;3.80;1.98;;;;;;;6.77;100.00;99993.25;5193879;28;20055;-66
2021/01/20 08:14:42;;;;;;;5.57;2.38;;;;;;;6.73;100.00;99991.94;5188970;28;20039;-66
2021/01/20 08:17:13;;;;;;;4.60;2.67;;;;;;;6.75;100.00;99982.78;5191591;28;20480;-65
2021/01/20 08:19:44;;;;;;;5.13;2.22;;;;;;;6.77;100.00;99979.09;5190690;28;20031;-66
2021/01/20 08:22:15;;;;;;;4.25;2.30;;;;;;;6.77;100.00;99974.59;5203784;28;20021;-66
2021/01/20 08:24:48;;;;;;;4.88;2.08;;;;;;;6.82;100.00;99972.28;5181105;28;20026;-67
2021/01/20 08:27:25;;;;;;;5.43;2.53;;;;;;;6.91;100.00;99973.97;5199910;28;20017;-67
2021/01/20 08:29:58;;;;;;;5.05;2.22;;;;;;;6.96;100.00;99979.66;5193659;28;20420;-66
2021/01/20 08:32:30;;;;;;;7.07;2.47;;;;;;;6.88;100.00;99960.16;5196955;28;20506;-66
2021/01/20 08:35:00;;;;;;;11.10;2.70;;;;;;;6.85;100.00;99955.97;5183951;28;20028;-66
2021/01/20 08:37:40;;;;;;;9.13;2.22;;;;;;;6.85;100.00;99965.81;5185739;28;20112;-66
2021/01/20 08:40:14;;;;;;;6.03;2.60;;;;;;;6.95;100.00;99969.16;5179398;28;20080;-66
2021/01/20 08:42:45;;;;;;;5.70;2.63;;;;;;;6.96;100.00;99966.31;5193613;28;20499;-66
2021/01/20 08:45:26;;;;;;;6.03;2.42;;;;;;;6.89;100.00;99965.31;5183344;28;20109;-66
2021/01/20 08:47:59;;;;;;;4.60;2.17;;;;;;;6.93;100.00;99963.16;5185735;28;20022;-66
2021/01/20 08:50:29;;;;;;;5.93;2.45;;;;;;;6.92;100.00;99975.63;5183221;28;20022;-67
2021/01/20 08:53:02;;;;;;;4.25;2.15;;;;;;;6.99;100.00;99982.00;5183632;28;20105;-67
2021/01/20 08:55:39;;;;;;;4.80;2.00;;;;;;;6.97;100.00;99986.63;5196058;28;20077;-65
2021/01/20 08:58:15;;;;;;;4.43;1.80;;;;;;;6.99;100.00;99986.50;5196714;28;20057;-66
2021/01/20 09:00:48;;;;;;;4.07;1.92;;;;;;;7.00;100.00;99980.16;5183114;28;20551;-67
2021/01/20 09:03:27;;;;;;;3.78;2.05;;;;;;;7.05;100.00;99975.16;5182369;28;20026;-66
2021/01/20 09:06:00;;;;;;;3.92;2.10;;;;;;;7.00;100.00;99965.00;5197076;28;20183;-67
2021/01/20 09:08:35;;;;;;;4.25;2.30;;;;;;;7.10;100.00;99959.50;5196498;28;20364;-66
2021/01/20 09:11:06;;;;;;;;;;;;;;;7.03;100.00;99946.97;5199098;28;20585;-67
2021/01/20 09:13:36;;;;;;;4.60;2.33;;;;;;;7.14;100.00;99949.34;5203046;28;19956;-66
2021/01/20 09:16:07;;;;;;;4.43;2.25;;;;;;;7.12;100.00;99952.16;5203100;28;20069;-66
2021/01/20 09:18:38;;;;;;;3.45;1.83;;;;;;;7.16;100.00;99939.31;5197720;28;20030;-66
2021/01/20 09:21:08;;;;;;;5.10;2.10;;;;;;;7.23;100.00;99945.69;5184988;28;20492;-66
2021/01/20 09:23:39;;;;;;;5.22;2.05;;;;;;;7.29;100.00;99952.19;5180014;28;20109;-66
2021/01/20 09:26:09;;;;;;;7.43;2.15;;;;;;;7.29;100.00;99958.34;5188460;28;20104;-66
2021/01/20 09:28:40;;;;;;;4.65;2.00;;;;;;;7.37;100.00;99947.66;5203554;28;20025;-66
2021/01/20 09:31:10;;;;;;;5.97;3.00;;;;;;;7.41;100.00;99945.50;5190662;28;20495;-66
2021/01/20 09:33:41;;;;;;;4.32;1.63;;;;;;;7.51;100.00;99943.50;5202781;28;20391;-66
2021/01/20 09:36:11;;;;;;;4.38;1.63;;;;;;;7.46;100.00;99937.81;5193953;28;20105;-66
2021/01/20 09:38:42;;;;;;;6.43;2.17;;;;;;;7.51;100.00;99935.47;5179494;28;20485;-66
2021/01/20 09:41:12;;;;;;;4.95;1.98;;;;;;;7.62;100.00;99937.78;5203521;28;20506;-66
2021/01/20 09:43:43;;;;;;;5.78;1.95;;;;;;;7.53;100.00;99936.16;5198834;28;20109;-66
2021/01/20 09:46:13;;;;;;;3.95;1.80;;;;;;;7.50;100.00;99929.31;5194595;28;20029;-66
2021/01/20 09:48:44;;;;;;;4.60;2.00;;;;;;;7.70;100.00;99931.63;5185390;28;20076;-66
2021/01/20 09:51:14;;;;;;;4.07;2.08;;;;;;;7.68;100.00;99914.91;5195331;28;20040;-66
2021/01/20 09:53:45;;;;;;;6.47;1.75;;;;;;;7.61;100.00;99903.28;5202470;28;20025;-65
2021/01/20 09:56:15;;;;;;;4.28;1.92;;;;;;;7.60;100.00;99902.44;5189377;28;20056;-66
2021/01/20 09:58:47;;;;;;;4.32;2.05;;;;;;;7.69;100.00;99895.25;5190581;28;20053;-66
2021/01/20 10:01:18;;;;;;;4.18;2.25;;;;;;;7.72;98.04;99895.72;5189476;28;20423;-66
2021/01/20 10:03:48;;;;;;;3.40;1.80;;;;;;;7.79;98.50;99911.91;5201984;28;20109;-66
2021/01/20 10:06:19;;;;;;;2.85;1.40;;;;;;;7.85;100.00;99905.88;5199746;28;20022;-66
2021/01/20 10:08:49;;;;;;;4.90;1.85;;;;;;;7.84;99.68;99906.91;5192479;28;20071;-65
2021/01/20 10:11:19;;;;;;;4.50;2.10;;;;;;;7.81;100.00;99899.22;5185196;28;20026;-65
2021/01/20 10:13:50;;;;;;;5.57;1.92;;;;;;;7.90;99.39;99911.53;5181216;28;20117;-65
2021/01/20 10:16:20;;;;;;;5.78;2.00;;;;;;;7.92;100.00;99901.50;5182163;28;20395;-66
2021/01/20 10:18:51;;;;;;;3.95;2.00;;;;;;;7.98;97.75;99883.97;5181893;28;20132;-65
2021/01/20 10:21:21;;;;;;;5.15;1.92;;;;;;;8.02;96.59;99901.31;5202247;28;20029;-65
2021/01/20 10:23:52;;;;;;;7.10;2.20;;;;;;;8.00;98.54;99896.16;5191872;28;20537;-65
2021/01/20 10:26:24;;;;;;;3.50;1.75;;;;;;;8.09;93.77;99877.44;5182139;28;20492;-65
2021/01/20 10:28:54;;;;;;;3.75;2.28;;;;;;;8.14;94.38;99877.75;5181663;28;20026;-65
2021/01/20 10:31:29;;;;;;;6.68;1.80;;;;;;;8.11;96.11;99884.25;5182294;28;20484;-65
2021/01/20 10:34:00;;;;;;;6.40;1.88;;;;;;;8.14;94.42;99875.91;5198372;28;20107;-65
2021/01/20 10:36:31;;;;;;;4.05;1.88;;;;;;;8.15;92.04;99884.75;5202572;28;20053;-65
2021/01/20 10:39:03;;;;;;;8.90;1.85;;;;;;;8.19;94.01;99868.19;5183484;28;20495;-65
2021/01/20 10:41:34;;;;;;;3.10;1.50;;;;;;;8.20;94.24;99872.53;5202844;28;20148;-65
2021/01/20 10:44:06;;;;;;;3.95;2.05;;;;;;;8.18;93.29;99866.53;5194298;28;20368;-65
2021/01/20 10:46:36;;;;;;;3.78;1.98;;;;;;;8.22;94.96;99869.66;5181777;28;20032;-65
2021/01/20 10:49:07;;;;;;;5.22;1.95;;;;;;;8.38;94.51;99871.44;5169618;28;20505;-65
2021/01/20 10:51:37;;;;;;;6.20;2.08;;;;;;;8.42;91.82;99862.06;5181296;28;20025;-65
2021/01/20 10:54:08;;;;;;;4.25;1.77;;;;;;;8.54;88.31;99858.00;5190926;28;20487;-65
2021/01/20 10:56:40;;;;;;;5.28;1.98;;;;;;;8.51;92.73;99842.31;5202137;28;20037;-65
2021/01/20 10:59:10;;;;;;;4.97;2.10;;;;;;;8.49;91.53;99839.00;5190373;28;20083;-65
2021/01/20 11:01:41;;;;;;;3.72;1.70;;;;;;;8.50;95.30;99849.50;5186918;28;20025;-66
2021/01/20 11:04:12;;;;;;;5.68;1.95;;;;;;;8.62;88.83;99843.75;5200764;28;20224;-65
2021/01/20 11:06:43;;;;;;;6.00;1.90;;;;;;;8.68;88.78;99821.63;5195168;28;20029;-65
2021/01/20 11:09:13;;;;;;;4.05;1.90;;;;;;;8.79;87.34;99840.78;5181714;28;20022;-65
2021/01/20 11:11:44;;;;;;;6.50;2.33;;;;;;;8.72;91.28;99836.31;5202467;28;20433;-65
2021/01/20 11:14:14;;;;;;;9.32;1.85;;;;;;;8.80;91.37;99825.56;5200545;28;20056;-65
2021/01/20 11:16:45;;;;;;;5.22;1.60;;;;;;;8.81;85.99;99833.41;5200252;28;20484;-65
2021/01/20 11:19:15;;;;;;;3.03;1.77;;;;;;;8.83;89.47;99830.53;5181831;28;20496;-65
2021/01/20 11:21:46;;;;;;;4.75;1.98;;;;;;;8.94;84.78;99838.16;5192445;28;20388;-65
2021/01/20 11:24:21;;;;;;;3.90;1.65;;;;;;;8.98;90.08;99827.91;5188612;28;20476;-65
2021/01/20 11:26:52;;;;;;;4.28;1.67;;;;;;;9.00;87.46;99818.69;5181422;28;20022;-64
2021/01/20 11:29:24;;;;;;;3.75;1.73;;;;;;;9.22;81.69;99825.00;5200546;28;20105;-66
2021/01/20 11:31:55;;;;;;;8.23;2.10;;;;;;;9.18;85.81;99820.19;5201930;28;20025;-65
2021/01/20 11:34:25;;;;;;;4.65;1.73;;;;;;;9.28;84.02;99807.38;5200706;28;20079;-66
2021/01/20 11:36:56;;;;;;;5.75;1.55;;;;;;;9.18;81.09;99804.13;5200200;28;20030;-65
2021/01/20 11:39:26;;;;;;;4.65;2.00;;;;;;;9.30;82.31;99800.03;5179778;28;20135;-65
2021/01/20 11:41:57;;;;;;;7.40;2.05;;;;;;;9.31;83.28;99807.03;5202110;28;20488;-65
2021/01/20 11:44:27;;;;;;;3.00;1.70;;;;;;;9.30;84.89;99794.66;5200538;28;20037;-65
2021/01/20 11:46:58;;;;;;;3.78;1.70;;;;;;;9.32;80.09;99792.63;5197207;28;20049;-65
2021/01/20 11:49:29;;;;;;;4.32;1.80;;;;;;;9.38;84.38;99791.88;5192060;28;20025;-65
2021/01/20 11:51:59;;;;;;;3.28;1.60;;;;;;;9.43;80.46;99781.44;5201078;28;20399;-64
2021/01/20 11:54:31;;;;;;;2.70;1.73;;;;;;;9.33;83.42;99780.91;5188187;28;20026;-65